sensor_id;sensor_type;location;lat;lon;timestamp;P1;durP1;ratioP1;P2;durP2;ratioP2
16484;SDS011;8353;47.856;12.344;2022-12-18T00:01:46;31.83;;;15.30;;
16484;SDS011;8353;47.856;12.344;2022-12-18T00:04:19;34.47;;;14.90;;
16484;SDS011;8353;47.856;12.344;2022-12-18T00:06:52;37.67;;;16.30;;
16484;SDS011;8353;47.856;12.344;2022-12-18T00:09:24;26.90;;;13.30;;
16484;SDS011;8353;47.856;12.344;2022-12-18T00:11:55;29.50;;;14.70;;
16484;SDS011;8353;47.856;12.344;2022-12-18T00:14:25;31.37;;;14.97;;
16484;SDS011;8353;47.856;12.344;2022-12-18T00:16:56;50.17;;;17.87;;
16484;SDS011;8353;47.856;12.344;2022-12-18T00:19:29;46.93;;;17.97;;
16484;SDS011;8353;47.856;12.344;2022-12-18T00:21:59;31.47;;;15.50;;
16484;SDS011;8353;47.856;12.344;2022-12-18T00:24:31;30.90;;;14.53;;
16484;SDS011;8353;47.856;12.344;2022-12-18T00:27:02;44.80;;;16.53;;
16484;SDS011;8353;47.856;12.344;2022-12-18T00:29:32;31.20;;;13.97;;
16484;SDS011;8353;47.856;12.344;2022-12-18T00:32:02;29.87;;;15.70;;
16484;SDS011;8353;47.856;12.344;2022-12-18T00:34:33;42.50;;;19.97;;
16484;SDS011;8353;47.856;12.344;2022-12-18T00:37:03;49.97;;;18.50;;
16484;SDS011;8353;47.856;12.344;2022-12-18T00:39:35;30.17;;;14.47;;
16484;SDS011;8353;47.856;12.344;2022-12-18T00:42:07;41.60;;;19.27;;
16484;SDS011;8353;47.856;12.344;2022-12-18T00:44:57;54.37;;;17.13;;
16484;SDS011;8353;47.856;12.344;2022-12-18T00:47:27;28.43;;;14.80;;
16484;SDS011;8353;47.856;12.344;2022-12-18T00:49:57;30.10;;;16.13;;
16484;SDS011;8353;47.856;12.344;2022-12-18T00:52:28;30.13;;;14.83;;
16484;SDS011;8353;47.856;12.344;2022-12-18T00:55:00;35.60;;;17.03;;
16484;SDS011;8353;47.856;12.344;2022-12-18T00:57:31;32.80;;;16.17;;
16484;SDS011;8353;47.856;12.344;2022-12-18T01:00:01;35.73;;;15.83;;
16484;SDS011;8353;47.856;12.344;2022-12-18T01:02:32;37.53;;;16.63;;
16484;SDS011;8353;47.856;12.344;2022-12-18T01:05:03;47.97;;;16.87;;
16484;SDS011;8353;47.856;12.344;2022-12-18T01:07:33;28.83;;;14.60;;
16484;SDS011;8353;47.856;12.344;2022-12-18T01:10:06;38.83;;;16.63;;
16484;SDS011;8353;47.856;12.344;2022-12-18T01:12:39;42.87;;;18.67;;
16484;SDS011;8353;47.856;12.344;2022-12-18T01:15:09;31.00;;;15.47;;
16484;SDS011;8353;47.856;12.344;2022-12-18T01:17:42;24.20;;;13.80;;
16484;SDS011;8353;47.856;12.344;2022-12-18T01:20:13;23.20;;;12.80;;
16484;SDS011;8353;47.856;12.344;2022-12-18T01:22:44;33.40;;;16.73;;
16484;SDS011;8353;47.856;12.344;2022-12-18T01:25:15;38.00;;;17.80;;
16484;SDS011;8353;47.856;12.344;2022-12-18T01:27:46;37.50;;;20.00;;
16484;SDS011;8353;47.856;12.344;2022-12-18T01:30:16;32.37;;;17.27;;
16484;SDS011;8353;47.856;12.344;2022-12-18T01:32:47;37.50;;;18.93;;
16484;SDS011;8353;47.856;12.344;2022-12-18T01:35:17;38.70;;;18.70;;
16484;SDS011;8353;47.856;12.344;2022-12-18T01:37:48;29.13;;;14.97;;
16484;SDS011;8353;47.856;12.344;2022-12-18T01:40:19;32.23;;;16.83;;
16484;SDS011;8353;47.856;12.344;2022-12-18T01:42:50;25.97;;;13.80;;
16484;SDS011;8353;47.856;12.344;2022-12-18T01:45:22;31.80;;;15.17;;
16484;SDS011;8353;47.856;12.344;2022-12-18T01:47:55;27.60;;;14.80;;
16484;SDS011;8353;47.856;12.344;2022-12-18T01:50:28;34.10;;;17.47;;
16484;SDS011;8353;47.856;12.344;2022-12-18T01:53:03;33.57;;;16.80;;
16484;SDS011;8353;47.856;12.344;2022-12-18T01:55:39;27.40;;;14.73;;
16484;SDS011;8353;47.856;12.344;2022-12-18T01:58:12;30.47;;;14.97;;
16484;SDS011;8353;47.856;12.344;2022-12-18T02:00:43;27.47;;;14.50;;
16484;SDS011;8353;47.856;12.344;2022-12-18T02:03:14;26.37;;;14.73;;
16484;SDS011;8353;47.856;12.344;2022-12-18T02:05:45;29.83;;;15.30;;
16484;SDS011;8353;47.856;12.344;2022-12-18T02:08:19;29.63;;;16.23;;
16484;SDS011;8353;47.856;12.344;2022-12-18T02:10:57;32.90;;;17.40;;
16484;SDS011;8353;47.856;12.344;2022-12-18T02:13:52;32.23;;;16.80;;
16484;SDS011;8353;47.856;12.344;2022-12-18T02:16:32;29.90;;;14.87;;
16484;SDS011;8353;47.856;12.344;2022-12-18T02:19:20;27.50;;;14.27;;
16484;SDS011;8353;47.856;12.344;2022-12-18T02:22:07;30.17;;;16.40;;
16484;SDS011;8353;47.856;12.344;2022-12-18T02:24:50;36.27;;;17.83;;
16484;SDS011;8353;47.856;12.344;2022-12-18T02:27:31;40.93;;;20.20;;
16484;SDS011;8353;47.856;12.344;2022-12-18T02:30:03;38.17;;;19.17;;
16484;SDS011;8353;47.856;12.344;2022-12-18T02:32:37;27.87;;;15.07;;
16484;SDS011;8353;47.856;12.344;2022-12-18T02:35:11;27.70;;;13.97;;
16484;SDS011;8353;47.856;12.344;2022-12-18T02:37:43;22.50;;;11.93;;
16484;SDS011;8353;47.856;12.344;2022-12-18T02:40:16;28.83;;;14.87;;
16484;SDS011;8353;47.856;12.344;2022-12-18T02:42:50;31.00;;;16.47;;
16484;SDS011;8353;47.856;12.344;2022-12-18T02:45:20;23.00;;;12.40;;
16484;SDS011;8353;47.856;12.344;2022-12-18T02:47:54;23.77;;;12.87;;
16484;SDS011;8353;47.856;12.344;2022-12-18T02:50:26;31.50;;;15.63;;
16484;SDS011;8353;47.856;12.344;2022-12-18T02:53:06;22.70;;;12.70;;
16484;SDS011;8353;47.856;12.344;2022-12-18T02:55:49;29.43;;;15.47;;
16484;SDS011;8353;47.856;12.344;2022-12-18T02:58:29;27.40;;;14.23;;
16484;SDS011;8353;47.856;12.344;2022-12-18T03:01:06;29.27;;;15.80;;
16484;SDS011;8353;47.856;12.344;2022-12-18T03:03:42;23.50;;;13.63;;
16484;SDS011;8353;47.856;12.344;2022-12-18T03:06:18;25.53;;;13.77;;
16484;SDS011;8353;47.856;12.344;2022-12-18T03:09:06;23.67;;;13.53;;
16484;SDS011;8353;47.856;12.344;2022-12-18T03:11:40;27.33;;;15.47;;
16484;SDS011;8353;47.856;12.344;2022-12-18T03:14:32;24.30;;;13.23;;
16484;SDS011;8353;47.856;12.344;2022-12-18T03:17:07;26.27;;;14.97;;
16484;SDS011;8353;47.856;12.344;2022-12-18T03:19:40;27.57;;;14.23;;
16484;SDS011;8353;47.856;12.344;2022-12-18T03:22:13;23.13;;;13.13;;
16484;SDS011;8353;47.856;12.344;2022-12-18T03:24:45;32.73;;;16.03;;
16484;SDS011;8353;47.856;12.344;2022-12-18T03:27:18;21.90;;;13.43;;
16484;SDS011;8353;47.856;12.344;2022-12-18T03:29:53;25.87;;;13.67;;
16484;SDS011;8353;47.856;12.344;2022-12-18T03:32:36;22.93;;;12.47;;
16484;SDS011;8353;47.856;12.344;2022-12-18T03:35:11;22.20;;;12.27;;
16484;SDS011;8353;47.856;12.344;2022-12-18T03:37:44;19.87;;;11.60;;
16484;SDS011;8353;47.856;12.344;2022-12-18T03:40:14;22.77;;;12.80;;
16484;SDS011;8353;47.856;12.344;2022-12-18T03:42:46;24.57;;;12.87;;
16484;SDS011;8353;47.856;12.344;2022-12-18T03:45:22;26.33;;;14.10;;
16484;SDS011;8353;47.856;12.344;2022-12-18T03:47:59;22.43;;;12.23;;
16484;SDS011;8353;47.856;12.344;2022-12-18T03:50:36;24.33;;;12.40;;
16484;SDS011;8353;47.856;12.344;2022-12-18T03:53:14;22.43;;;11.93;;
16484;SDS011;8353;47.856;12.344;2022-12-18T03:55:53;24.53;;;12.77;;
16484;SDS011;8353;47.856;12.344;2022-12-18T03:58:25;25.77;;;13.80;;
16484;SDS011;8353;47.856;12.344;2022-12-18T04:01:00;20.67;;;12.30;;
16484;SDS011;8353;47.856;12.344;2022-12-18T04:03:34;23.23;;;13.20;;
16484;SDS011;8353;47.856;12.344;2022-12-18T04:06:05;27.97;;;14.87;;
16484;SDS011;8353;47.856;12.344;2022-12-18T04:08:36;23.90;;;12.57;;
16484;SDS011;8353;47.856;12.344;2022-12-18T04:11:08;24.90;;;14.20;;
16484;SDS011;8353;47.856;12.344;2022-12-18T04:13:39;22.97;;;12.93;;
16484;SDS011;8353;47.856;12.344;2022-12-18T04:16:13;26.90;;;13.63;;
16484;SDS011;8353;47.856;12.344;2022-12-18T04:18:44;20.90;;;11.53;;
16484;SDS011;8353;47.856;12.344;2022-12-18T04:21:15;21.87;;;11.93;;
16484;SDS011;8353;47.856;12.344;2022-12-18T04:23:45;21.07;;;12.30;;
16484;SDS011;8353;47.856;12.344;2022-12-18T04:26:15;23.60;;;12.17;;
16484;SDS011;8353;47.856;12.344;2022-12-18T04:28:46;23.97;;;11.93;;
16484;SDS011;8353;47.856;12.344;2022-12-18T04:31:18;21.33;;;12.27;;
16484;SDS011;8353;47.856;12.344;2022-12-18T04:33:49;26.10;;;11.60;;
16484;SDS011;8353;47.856;12.344;2022-12-18T04:36:19;21.07;;;10.37;;
16484;SDS011;8353;47.856;12.344;2022-12-18T04:38:50;20.10;;;11.73;;
16484;SDS011;8353;47.856;12.344;2022-12-18T04:41:20;24.00;;;11.77;;
16484;SDS011;8353;47.856;12.344;2022-12-18T04:43:51;24.53;;;12.37;;
16484;SDS011;8353;47.856;12.344;2022-12-18T04:46:23;25.70;;;13.50;;
16484;SDS011;8353;47.856;12.344;2022-12-18T04:48:53;19.40;;;11.67;;
16484;SDS011;8353;47.856;12.344;2022-12-18T04:51:24;18.83;;;10.57;;
16484;SDS011;8353;47.856;12.344;2022-12-18T04:53:55;19.47;;;10.97;;
16484;SDS011;8353;47.856;12.344;2022-12-18T04:56:26;18.17;;;10.17;;
16484;SDS011;8353;47.856;12.344;2022-12-18T04:58:56;22.83;;;12.67;;
16484;SDS011;8353;47.856;12.344;2022-12-18T05:01:29;19.60;;;10.43;;
16484;SDS011;8353;47.856;12.344;2022-12-18T05:03:59;18.83;;;10.87;;
16484;SDS011;8353;47.856;12.344;2022-12-18T05:06:30;17.77;;;10.50;;
16484;SDS011;8353;47.856;12.344;2022-12-18T05:09:00;21.67;;;12.67;;
16484;SDS011;8353;47.856;12.344;2022-12-18T05:11:31;31.43;;;15.93;;
16484;SDS011;8353;47.856;12.344;2022-12-18T05:14:01;19.00;;;11.63;;
16484;SDS011;8353;47.856;12.344;2022-12-18T05:16:33;17.80;;;10.20;;
16484;SDS011;8353;47.856;12.344;2022-12-18T05:19:04;25.20;;;13.60;;
16484;SDS011;8353;47.856;12.344;2022-12-18T05:21:35;17.73;;;9.50;;
16484;SDS011;8353;47.856;12.344;2022-12-18T05:24:06;19.80;;;9.90;;
16484;SDS011;8353;47.856;12.344;2022-12-18T05:26:37;25.03;;;13.53;;
16484;SDS011;8353;47.856;12.344;2022-12-18T05:29:07;22.10;;;10.83;;
16484;SDS011;8353;47.856;12.344;2022-12-18T05:31:42;15.07;;;9.73;;
16484;SDS011;8353;47.856;12.344;2022-12-18T05:34:12;16.07;;;8.70;;
16484;SDS011;8353;47.856;12.344;2022-12-18T05:36:43;20.30;;;10.73;;
16484;SDS011;8353;47.856;12.344;2022-12-18T05:39:13;23.10;;;10.97;;
16484;SDS011;8353;47.856;12.344;2022-12-18T05:41:44;16.23;;;9.83;;
16484;SDS011;8353;47.856;12.344;2022-12-18T05:44:15;18.10;;;10.20;;
16484;SDS011;8353;47.856;12.344;2022-12-18T05:46:46;17.70;;;9.90;;
16484;SDS011;8353;47.856;12.344;2022-12-18T05:49:17;17.03;;;9.97;;
16484;SDS011;8353;47.856;12.344;2022-12-18T05:51:47;15.67;;;9.10;;
16484;SDS011;8353;47.856;12.344;2022-12-18T05:54:18;17.63;;;9.93;;
16484;SDS011;8353;47.856;12.344;2022-12-18T05:56:49;26.10;;;12.20;;
16484;SDS011;8353;47.856;12.344;2022-12-18T05:59:19;18.13;;;9.10;;
16484;SDS011;8353;47.856;12.344;2022-12-18T06:01:51;17.43;;;9.27;;
16484;SDS011;8353;47.856;12.344;2022-12-18T06:04:22;14.17;;;8.40;;
16484;SDS011;8353;47.856;12.344;2022-12-18T06:06:53;13.83;;;8.63;;
16484;SDS011;8353;47.856;12.344;2022-12-18T06:09:24;17.73;;;9.13;;
16484;SDS011;8353;47.856;12.344;2022-12-18T06:11:54;15.33;;;9.10;;
16484;SDS011;8353;47.856;12.344;2022-12-18T06:14:25;15.20;;;8.83;;
16484;SDS011;8353;47.856;12.344;2022-12-18T06:16:57;16.03;;;8.70;;
16484;SDS011;8353;47.856;12.344;2022-12-18T06:19:27;14.63;;;8.87;;
16484;SDS011;8353;47.856;12.344;2022-12-18T06:21:58;17.20;;;10.07;;
16484;SDS011;8353;47.856;12.344;2022-12-18T06:24:29;13.70;;;8.17;;
16484;SDS011;8353;47.856;12.344;2022-12-18T06:27:00;17.83;;;10.10;;
16484;SDS011;8353;47.856;12.344;2022-12-18T06:29:33;14.57;;;8.77;;
16484;SDS011;8353;47.856;12.344;2022-12-18T06:32:05;18.30;;;11.10;;
16484;SDS011;8353;47.856;12.344;2022-12-18T06:34:36;22.20;;;12.67;;
16484;SDS011;8353;47.856;12.344;2022-12-18T06:37:07;19.27;;;10.93;;
16484;SDS011;8353;47.856;12.344;2022-12-18T06:39:37;17.93;;;10.30;;
16484;SDS011;8353;47.856;12.344;2022-12-18T06:42:07;18.03;;;10.27;;
16484;SDS011;8353;47.856;12.344;2022-12-18T06:44:38;24.33;;;13.87;;
16484;SDS011;8353;47.856;12.344;2022-12-18T06:47:09;16.20;;;9.60;;
16484;SDS011;8353;47.856;12.344;2022-12-18T06:49:39;17.50;;;8.50;;
16484;SDS011;8353;47.856;12.344;2022-12-18T06:52:10;15.47;;;9.13;;
16484;SDS011;8353;47.856;12.344;2022-12-18T06:54:41;17.23;;;9.37;;
16484;SDS011;8353;47.856;12.344;2022-12-18T06:57:12;18.30;;;10.73;;
16484;SDS011;8353;47.856;12.344;2022-12-18T06:59:42;16.87;;;9.57;;
16484;SDS011;8353;47.856;12.344;2022-12-18T07:02:14;13.60;;;7.93;;
16484;SDS011;8353;47.856;12.344;2022-12-18T07:04:44;11.47;;;7.37;;
16484;SDS011;8353;47.856;12.344;2022-12-18T07:07:14;12.77;;;7.67;;
16484;SDS011;8353;47.856;12.344;2022-12-18T07:09:45;15.90;;;9.87;;
16484;SDS011;8353;47.856;12.344;2022-12-18T07:12:16;18.57;;;10.63;;
16484;SDS011;8353;47.856;12.344;2022-12-18T07:14:46;15.37;;;9.17;;
16484;SDS011;8353;47.856;12.344;2022-12-18T07:17:18;23.03;;;12.60;;
16484;SDS011;8353;47.856;12.344;2022-12-18T07:19:48;19.07;;;9.80;;
16484;SDS011;8353;47.856;12.344;2022-12-18T07:22:19;17.87;;;9.40;;
16484;SDS011;8353;47.856;12.344;2022-12-18T07:24:49;15.40;;;9.03;;
16484;SDS011;8353;47.856;12.344;2022-12-18T07:27:19;18.27;;;9.77;;
16484;SDS011;8353;47.856;12.344;2022-12-18T07:29:49;18.10;;;9.30;;
16484;SDS011;8353;47.856;12.344;2022-12-18T07:32:22;15.70;;;8.70;;
16484;SDS011;8353;47.856;12.344;2022-12-18T07:34:52;17.40;;;10.03;;
16484;SDS011;8353;47.856;12.344;2022-12-18T07:37:23;17.10;;;9.47;;
16484;SDS011;8353;47.856;12.344;2022-12-18T07:39:54;15.57;;;10.20;;
16484;SDS011;8353;47.856;12.344;2022-12-18T07:42:24;15.73;;;8.83;;
16484;SDS011;8353;47.856;12.344;2022-12-18T07:45:01;16.63;;;9.13;;
16484;SDS011;8353;47.856;12.344;2022-12-18T07:47:35;19.17;;;10.47;;
16484;SDS011;8353;47.856;12.344;2022-12-18T07:50:05;17.27;;;9.27;;
16484;SDS011;8353;47.856;12.344;2022-12-18T07:52:36;14.83;;;8.67;;
16484;SDS011;8353;47.856;12.344;2022-12-18T07:55:07;14.27;;;9.53;;
16484;SDS011;8353;47.856;12.344;2022-12-18T07:57:38;16.73;;;9.13;;
16484;SDS011;8353;47.856;12.344;2022-12-18T08:00:09;17.70;;;9.00;;
16484;SDS011;8353;47.856;12.344;2022-12-18T08:02:42;19.80;;;10.33;;
16484;SDS011;8353;47.856;12.344;2022-12-18T08:05:13;18.53;;;10.07;;
16484;SDS011;8353;47.856;12.344;2022-12-18T08:07:44;15.63;;;8.53;;
16484;SDS011;8353;47.856;12.344;2022-12-18T08:10:14;15.20;;;8.27;;
16484;SDS011;8353;47.856;12.344;2022-12-18T08:12:45;16.67;;;9.67;;
16484;SDS011;8353;47.856;12.344;2022-12-18T08:15:18;15.67;;;9.57;;
16484;SDS011;8353;47.856;12.344;2022-12-18T08:17:50;12.67;;;7.90;;
16484;SDS011;8353;47.856;12.344;2022-12-18T08:20:20;14.17;;;8.90;;
16484;SDS011;8353;47.856;12.344;2022-12-18T08:22:54;15.80;;;8.70;;
16484;SDS011;8353;47.856;12.344;2022-12-18T08:25:26;16.90;;;9.27;;
16484;SDS011;8353;47.856;12.344;2022-12-18T08:27:56;12.43;;;7.70;;
16484;SDS011;8353;47.856;12.344;2022-12-18T08:30:27;21.73;;;12.13;;
16484;SDS011;8353;47.856;12.344;2022-12-18T08:33:00;14.80;;;8.93;;
16484;SDS011;8353;47.856;12.344;2022-12-18T08:35:34;17.30;;;9.47;;
16484;SDS011;8353;47.856;12.344;2022-12-18T08:38:04;15.93;;;8.80;;
16484;SDS011;8353;47.856;12.344;2022-12-18T08:40:35;15.23;;;8.37;;
16484;SDS011;8353;47.856;12.344;2022-12-18T08:43:05;18.03;;;10.60;;
16484;SDS011;8353;47.856;12.344;2022-12-18T08:45:54;18.53;;;10.77;;
16484;SDS011;8353;47.856;12.344;2022-12-18T08:48:26;18.27;;;10.00;;
16484;SDS011;8353;47.856;12.344;2022-12-18T08:50:57;16.87;;;9.73;;
16484;SDS011;8353;47.856;12.344;2022-12-18T08:53:30;13.33;;;7.57;;
16484;SDS011;8353;47.856;12.344;2022-12-18T08:56:01;13.90;;;9.07;;
16484;SDS011;8353;47.856;12.344;2022-12-18T08:58:32;15.80;;;9.20;;
16484;SDS011;8353;47.856;12.344;2022-12-18T09:01:02;14.53;;;10.10;;
16484;SDS011;8353;47.856;12.344;2022-12-18T09:03:36;12.57;;;7.07;;
16484;SDS011;8353;47.856;12.344;2022-12-18T09:06:07;10.10;;;7.03;;
16484;SDS011;8353;47.856;12.344;2022-12-18T09:08:38;12.33;;;8.03;;
16484;SDS011;8353;47.856;12.344;2022-12-18T09:11:11;14.40;;;8.43;;
16484;SDS011;8353;47.856;12.344;2022-12-18T09:13:43;18.20;;;9.10;;
16484;SDS011;8353;47.856;12.344;2022-12-18T09:16:14;18.23;;;10.03;;
16484;SDS011;8353;47.856;12.344;2022-12-18T09:18:46;16.23;;;8.60;;
16484;SDS011;8353;47.856;12.344;2022-12-18T09:21:18;13.20;;;8.13;;
16484;SDS011;8353;47.856;12.344;2022-12-18T09:23:50;22.33;;;11.47;;
16484;SDS011;8353;47.856;12.344;2022-12-18T09:26:26;16.43;;;10.30;;
16484;SDS011;8353;47.856;12.344;2022-12-18T09:28:57;17.20;;;9.63;;
16484;SDS011;8353;47.856;12.344;2022-12-18T09:31:28;18.53;;;8.83;;
16484;SDS011;8353;47.856;12.344;2022-12-18T09:33:59;13.57;;;8.50;;
16484;SDS011;8353;47.856;12.344;2022-12-18T09:36:29;17.47;;;9.43;;
16484;SDS011;8353;47.856;12.344;2022-12-18T09:39:00;15.93;;;9.67;;
16484;SDS011;8353;47.856;12.344;2022-12-18T09:41:44;13.20;;;8.83;;
16484;SDS011;8353;47.856;12.344;2022-12-18T09:44:18;19.57;;;10.77;;
16484;SDS011;8353;47.856;12.344;2022-12-18T09:46:54;12.53;;;7.83;;
16484;SDS011;8353;47.856;12.344;2022-12-18T09:49:34;27.63;;;14.67;;
16484;SDS011;8353;47.856;12.344;2022-12-18T09:52:09;15.80;;;8.87;;
16484;SDS011;8353;47.856;12.344;2022-12-18T09:54:46;14.07;;;8.13;;
16484;SDS011;8353;47.856;12.344;2022-12-18T09:57:22;12.63;;;8.00;;
16484;SDS011;8353;47.856;12.344;2022-12-18T09:59:55;15.10;;;9.13;;
16484;SDS011;8353;47.856;12.344;2022-12-18T10:02:30;19.73;;;11.00;;
16484;SDS011;8353;47.856;12.344;2022-12-18T10:05:05;18.57;;;10.53;;
16484;SDS011;8353;47.856;12.344;2022-12-18T10:07:47;23.83;;;12.97;;
16484;SDS011;8353;47.856;12.344;2022-12-18T10:10:27;14.50;;;8.83;;
16484;SDS011;8353;47.856;12.344;2022-12-18T10:13:14;16.17;;;9.57;;
16484;SDS011;8353;47.856;12.344;2022-12-18T10:15:56;17.03;;;10.73;;
16484;SDS011;8353;47.856;12.344;2022-12-18T10:18:39;14.67;;;9.07;;
16484;SDS011;8353;47.856;12.344;2022-12-18T10:21:25;12.00;;;7.77;;
16484;SDS011;8353;47.856;12.344;2022-12-18T10:24:03;20.03;;;11.93;;
16484;SDS011;8353;47.856;12.344;2022-12-18T10:26:44;26.07;;;14.67;;
16484;SDS011;8353;47.856;12.344;2022-12-18T10:29:16;18.43;;;9.97;;
16484;SDS011;8353;47.856;12.344;2022-12-18T10:31:47;17.27;;;9.37;;
16484;SDS011;8353;47.856;12.344;2022-12-18T10:34:17;12.80;;;7.90;;
16484;SDS011;8353;47.856;12.344;2022-12-18T10:36:49;22.07;;;12.97;;
16484;SDS011;8353;47.856;12.344;2022-12-18T10:39:20;17.23;;;9.03;;
16484;SDS011;8353;47.856;12.344;2022-12-18T10:41:52;15.70;;;9.00;;
16484;SDS011;8353;47.856;12.344;2022-12-18T10:44:41;12.10;;;7.53;;
16484;SDS011;8353;47.856;12.344;2022-12-18T10:47:12;19.97;;;12.03;;
16484;SDS011;8353;47.856;12.344;2022-12-18T10:49:47;14.40;;;8.23;;
16484;SDS011;8353;47.856;12.344;2022-12-18T10:52:22;16.57;;;9.67;;
16484;SDS011;8353;47.856;12.344;2022-12-18T10:54:54;14.27;;;7.57;;
16484;SDS011;8353;47.856;12.344;2022-12-18T10:57:31;15.30;;;9.40;;
16484;SDS011;8353;47.856;12.344;2022-12-18T11:00:24;20.93;;;12.43;;
16484;SDS011;8353;47.856;12.344;2022-12-18T11:02:56;13.30;;;8.77;;
16484;SDS011;8353;47.856;12.344;2022-12-18T11:05:27;14.97;;;9.30;;
16484;SDS011;8353;47.856;12.344;2022-12-18T11:08:00;12.20;;;7.83;;
16484;SDS011;8353;47.856;12.344;2022-12-18T11:10:35;17.93;;;10.70;;
16484;SDS011;8353;47.856;12.344;2022-12-18T11:13:12;20.67;;;11.67;;
16484;SDS011;8353;47.856;12.344;2022-12-18T11:15:48;21.23;;;11.90;;
16484;SDS011;8353;47.856;12.344;2022-12-18T11:18:19;18.77;;;11.97;;
16484;SDS011;8353;47.856;12.344;2022-12-18T11:20:56;18.23;;;10.70;;
16484;SDS011;8353;47.856;12.344;2022-12-18T11:23:30;21.33;;;13.03;;
16484;SDS011;8353;47.856;12.344;2022-12-18T11:26:00;14.17;;;8.90;;
16484;SDS011;8353;47.856;12.344;2022-12-18T11:28:37;28.87;;;16.57;;
16484;SDS011;8353;47.856;12.344;2022-12-18T11:31:15;14.90;;;9.10;;
16484;SDS011;8353;47.856;12.344;2022-12-18T11:33:51;14.33;;;9.03;;
16484;SDS011;8353;47.856;12.344;2022-12-18T11:36:28;14.07;;;8.53;;
16484;SDS011;8353;47.856;12.344;2022-12-18T11:39:10;18.37;;;11.23;;
16484;SDS011;8353;47.856;12.344;2022-12-18T11:41:47;16.00;;;9.33;;
16484;SDS011;8353;47.856;12.344;2022-12-18T11:44:42;14.93;;;9.20;;
16484;SDS011;8353;47.856;12.344;2022-12-18T11:47:22;19.23;;;11.73;;
16484;SDS011;8353;47.856;12.344;2022-12-18T11:50:00;17.40;;;9.40;;
16484;SDS011;8353;47.856;12.344;2022-12-18T11:52:33;17.80;;;10.67;;
16484;SDS011;8353;47.856;12.344;2022-12-18T11:55:12;16.40;;;10.00;;
16484;SDS011;8353;47.856;12.344;2022-12-18T11:57:46;16.20;;;9.37;;
16484;SDS011;8353;47.856;12.344;2022-12-18T12:00:25;19.23;;;11.67;;
16484;SDS011;8353;47.856;12.344;2022-12-18T12:03:06;17.63;;;9.60;;
16484;SDS011;8353;47.856;12.344;2022-12-18T12:05:56;16.23;;;9.43;;
16484;SDS011;8353;47.856;12.344;2022-12-18T12:08:37;16.90;;;10.40;;
16484;SDS011;8353;47.856;12.344;2022-12-18T12:11:20;19.30;;;11.23;;
16484;SDS011;8353;47.856;12.344;2022-12-18T12:14:02;16.37;;;9.50;;
16484;SDS011;8353;47.856;12.344;2022-12-18T12:16:44;17.27;;;10.37;;
16484;SDS011;8353;47.856;12.344;2022-12-18T12:19:25;17.37;;;10.60;;
16484;SDS011;8353;47.856;12.344;2022-12-18T12:22:03;15.20;;;8.50;;
16484;SDS011;8353;47.856;12.344;2022-12-18T12:24:44;17.73;;;10.50;;
16484;SDS011;8353;47.856;12.344;2022-12-18T12:27:26;13.37;;;8.00;;
16484;SDS011;8353;47.856;12.344;2022-12-18T12:30:06;16.27;;;10.20;;
16484;SDS011;8353;47.856;12.344;2022-12-18T12:32:42;16.50;;;9.77;;
16484;SDS011;8353;47.856;12.344;2022-12-18T12:35:29;19.70;;;10.93;;
16484;SDS011;8353;47.856;12.344;2022-12-18T12:38:08;17.73;;;9.50;;
16484;SDS011;8353;47.856;12.344;2022-12-18T12:40:43;13.73;;;8.70;;
16484;SDS011;8353;47.856;12.344;2022-12-18T12:43:24;14.83;;;9.27;;
16484;SDS011;8353;47.856;12.344;2022-12-18T12:45:58;14.90;;;9.37;;
16484;SDS011;8353;47.856;12.344;2022-12-18T12:48:37;17.80;;;10.73;;
16484;SDS011;8353;47.856;12.344;2022-12-18T12:51:13;17.57;;;10.23;;
16484;SDS011;8353;47.856;12.344;2022-12-18T12:53:47;18.03;;;10.53;;
16484;SDS011;8353;47.856;12.344;2022-12-18T12:56:19;19.43;;;11.93;;
16484;SDS011;8353;47.856;12.344;2022-12-18T12:58:55;13.20;;;8.70;;
16484;SDS011;8353;47.856;12.344;2022-12-18T13:01:33;15.10;;;8.73;;
16484;SDS011;8353;47.856;12.344;2022-12-18T13:04:14;14.97;;;8.83;;
16484;SDS011;8353;47.856;12.344;2022-12-18T13:06:53;17.87;;;10.23;;
16484;SDS011;8353;47.856;12.344;2022-12-18T13:09:30;12.57;;;8.43;;
16484;SDS011;8353;47.856;12.344;2022-12-18T13:12:02;18.20;;;10.40;;
16484;SDS011;8353;47.856;12.344;2022-12-18T13:14:55;14.27;;;8.80;;
16484;SDS011;8353;47.856;12.344;2022-12-18T13:17:43;13.20;;;8.17;;
16484;SDS011;8353;47.856;12.344;2022-12-18T13:20:14;15.57;;;10.50;;
16484;SDS011;8353;47.856;12.344;2022-12-18T13:22:46;18.40;;;11.13;;
16484;SDS011;8353;47.856;12.344;2022-12-18T13:25:32;13.27;;;8.80;;
16484;SDS011;8353;47.856;12.344;2022-12-18T13:28:11;21.20;;;12.87;;
16484;SDS011;8353;47.856;12.344;2022-12-18T13:30:50;16.07;;;10.60;;
16484;SDS011;8353;47.856;12.344;2022-12-18T13:33:37;15.57;;;10.20;;
16484;SDS011;8353;47.856;12.344;2022-12-18T13:36:12;16.07;;;10.63;;
16484;SDS011;8353;47.856;12.344;2022-12-18T13:38:45;24.63;;;13.93;;
16484;SDS011;8353;47.856;12.344;2022-12-18T13:41:22;16.87;;;10.50;;
16484;SDS011;8353;47.856;12.344;2022-12-18T13:43:53;14.63;;;9.23;;
16484;SDS011;8353;47.856;12.344;2022-12-18T13:46:29;12.50;;;8.13;;
16484;SDS011;8353;47.856;12.344;2022-12-18T13:49:19;16.23;;;9.63;;
16484;SDS011;8353;47.856;12.344;2022-12-18T13:51:53;18.73;;;11.30;;
16484;SDS011;8353;47.856;12.344;2022-12-18T13:54:42;15.40;;;8.73;;
16484;SDS011;8353;47.856;12.344;2022-12-18T13:57:26;16.67;;;10.50;;
16484;SDS011;8353;47.856;12.344;2022-12-18T13:59:59;16.57;;;10.00;;
16484;SDS011;8353;47.856;12.344;2022-12-18T14:02:54;13.47;;;8.17;;
16484;SDS011;8353;47.856;12.344;2022-12-18T14:05:26;17.30;;;10.67;;
16484;SDS011;8353;47.856;12.344;2022-12-18T14:07:59;14.37;;;9.57;;
16484;SDS011;8353;47.856;12.344;2022-12-18T14:10:35;16.10;;;9.73;;
16484;SDS011;8353;47.856;12.344;2022-12-18T14:13:10;18.93;;;11.20;;
16484;SDS011;8353;47.856;12.344;2022-12-18T14:15:56;16.23;;;9.97;;
16484;SDS011;8353;47.856;12.344;2022-12-18T14:18:33;19.33;;;10.97;;
16484;SDS011;8353;47.856;12.344;2022-12-18T14:21:14;24.27;;;13.40;;
16484;SDS011;8353;47.856;12.344;2022-12-18T14:24:03;14.53;;;9.27;;
16484;SDS011;8353;47.856;12.344;2022-12-18T14:26:35;13.80;;;8.50;;
16484;SDS011;8353;47.856;12.344;2022-12-18T14:29:18;16.23;;;11.10;;
16484;SDS011;8353;47.856;12.344;2022-12-18T14:32:07;14.53;;;10.10;;
16484;SDS011;8353;47.856;12.344;2022-12-18T14:34:41;14.13;;;9.50;;
16484;SDS011;8353;47.856;12.344;2022-12-18T14:37:12;10.63;;;7.40;;
16484;SDS011;8353;47.856;12.344;2022-12-18T14:39:55;18.97;;;10.60;;
16484;SDS011;8353;47.856;12.344;2022-12-18T14:42:27;13.57;;;8.80;;
16484;SDS011;8353;47.856;12.344;2022-12-18T14:48:05;17.00;;;10.20;;
16484;SDS011;8353;47.856;12.344;2022-12-18T14:50:39;20.50;;;12.67;;
16484;SDS011;8353;47.856;12.344;2022-12-18T14:53:18;11.90;;;8.00;;
16484;SDS011;8353;47.856;12.344;2022-12-18T14:55:52;14.27;;;9.27;;
16484;SDS011;8353;47.856;12.344;2022-12-18T14:58:22;16.27;;;9.77;;
16484;SDS011;8353;47.856;12.344;2022-12-18T15:00:53;17.43;;;11.20;;
16484;SDS011;8353;47.856;12.344;2022-12-18T15:03:24;20.97;;;12.30;;
16484;SDS011;8353;47.856;12.344;2022-12-18T15:05:56;13.00;;;8.17;;
16484;SDS011;8353;47.856;12.344;2022-12-18T15:08:44;15.30;;;8.40;;
16484;SDS011;8353;47.856;12.344;2022-12-18T15:11:28;13.93;;;8.27;;